Aeroporto :
LOGIN :

Iscrizione | Disclaimer

   EN    FR    IT 

 










Sommario :    VFR   VFR Marginale   IFR   IFR Intensivo   IFR Molto Intensivo
Visibilità : 
Base nubi : 
>= 8 km
>= 3000ft
5 / 8 km
1000 / 3000 ft
1500m / 5 km
500 / 1000 ft
800 / 1500m
200 / 500 ft
< 800m
< 200 ft
Simboli :   Temporali  Nebbia  Neve Forte  Precipitazioni Forti  Vento > 20 kt
SIGMETs :   Varie  Temporali  Ghiacco  Turbolenza  Onda orograficha  Ceneri Vulcaniche






- Altitudine del aeroporto : 6 ft
- Codice IATA : PSA


LIRP - Galileo Galilei Pisa

ULTIMO METAR :
  • 151245Z 34009KT 7000 -RA FEW025 SCT030 BKN040 11/10 Q1002 NOSIG

METARs OBSOLETI :
  • 151215Z 33010KT 6000 -RA FEW020 SCT025 BKN040 11/10 Q1001 NOSIG
  • 151145Z 34009KT 5000 -RA FEW020 SCT025 BKN035 11/10 Q1001 NOSIG
  • 151115Z 31012KT 3000 -RA FEW015 SCT025 BKN030 12/12 Q1002 NOSIG
  • 151045Z 26006KT 2500 -RA VCSH FEW010 SCT015 BKN025 12/12 Q1002 TEMPO 1500 SHRA
  • 151015Z 02002KT 4000 -RA FEW010 SCT020 BKN035 12/12 Q1001 TEMPO 3000

TAF TAF LIRP
Valido dal 15 a 12 ore il 16 a 12 ore UTC


151100Z 1512/1612 26008KT 9999 SCT015 BKN025
TEMPO 1512/1516 5000 RA BR
BECMG 1516/1518 11012KT
TEMPO 1518/1612 11015G25KT 3000 RA BR
PROB40
TEMPO 1521/1612 4000 TSRA FEW015CB BKN025



MetMap, La meteo Aeronautica in un colpo d'occhio ! - Copyright ORBIFLY Dicembre 2007 - Disclaimer

ORBIFLY MET'MAP TEAM :

Programmazione e sviluppo : Alexandra Zaïnal
Concezione e sviluppo : Baudouin d'Aumeries
Co-Programmazione e sviluppo : Marc-Olivier Méhu
Supporto tecnico e logistico : Manuel Goepfert
Aiuto per la traduzione : Arnaldo La Scala

Contatto : metmap@orbifly.com




FONTI E CREDITI :

   NOAA